Time;durP1;ratioP1;P1;durP2;ratioP2;P2;SDS_P1;SDS_P2;PMS_P1;PMS_P2;Temp;Humidity;BMP_temperature;BMP_pressure;BME280_temperature;BME280_humidity;BME280_pressure;Samples;Min_cycle;Max_cycle;Signal;HPM_P1;HPM_P2
2022/09/27 00:02:03;;;;;;;3.17;0.90;;;11.20;99.90;;;;;;5049187;28;20029;-43
2022/09/27 00:04:28;;;;;;;2.30;0.82;;;11.20;99.90;;;;;;5049936;28;20468;-42
2022/09/27 00:06:54;;;;;;;3.13;0.80;;;11.10;99.90;;;;;;5047273;28;20024;-43
2022/09/27 00:09:19;;;;;;;3.97;1.10;;;11.00;99.90;;;;;;5049239;28;20044;-47
2022/09/27 00:11:46;;;;;;;4.70;0.98;;;11.00;99.90;;;;;;5051034;28;20112;-43
2022/09/27 00:14:13;;;;;;;5.60;1.17;;;10.90;99.90;;;;;;5050912;28;20109;-46
2022/09/27 00:16:40;;;;;;;6.97;1.23;;;10.90;99.90;;;;;;5051241;28;20083;-41
2022/09/27 00:19:12;;;;;;;4.00;1.02;;;10.90;99.90;;;;;;5050039;28;20017;-41
2022/09/27 00:21:38;;;;;;;4.68;1.00;;;10.90;99.90;;;;;;5050947;28;20063;-40
2022/09/27 00:24:04;;;;;;;3.80;0.80;;;10.90;99.90;;;;;;5050864;28;20049;-41
2022/09/27 00:26:30;;;;;;;6.13;1.42;;;10.90;99.90;;;;;;5051045;28;20096;-41
2022/09/27 00:28:56;;;;;;;4.10;1.20;;;10.90;99.90;;;;;;5049699;28;20021;-42
2022/09/27 00:31:23;;;;;;;5.03;1.27;;;10.90;99.90;;;;;;5050699;28;20052;-48
2022/09/27 00:33:51;;;;;;;7.80;1.40;;;10.90;99.90;;;;;;5050019;28;20025;-48
2022/09/27 00:36:18;;;;;;;4.85;1.00;;;10.90;99.90;;;;;;5049810;28;20044;-41
2022/09/27 00:38:44;;;;;;;5.40;1.30;;;10.90;99.90;;;;;;5049090;28;20028;-43
2022/09/27 00:41:26;;;;;;;3.88;1.20;;;11.00;99.90;;;;;;5048010;28;20036;-45
2022/09/27 00:43:54;;;;;;;4.82;1.55;;;10.90;99.90;;;;;;5049410;28;20116;-42
2022/09/27 00:46:49;;;;;;;5.72;1.10;;;10.90;99.90;;;;;;5049453;28;20397;-44
2022/09/27 00:49:20;;;;;;;5.97;1.10;;;10.90;99.90;;;;;;5010491;28;1100575;-44
2022/09/27 00:51:52;;;;;;;4.45;0.98;;;10.90;99.90;;;;;;5051657;28;20270;-46
2022/09/27 00:54:21;;;;;;;2.70;0.82;;;10.90;99.90;;;;;;5052257;28;20067;-49
2022/09/27 00:56:48;;;;;;;5.63;1.23;;;10.90;99.90;;;;;;5052093;28;20400;-50
2022/09/27 00:59:29;;;;;;;3.72;1.70;;;10.80;99.90;;;;;;5052199;28;20024;-50
2022/09/27 01:01:55;;;;;;;6.95;1.40;;;10.80;99.90;;;;;;5049670;28;20059;-44
2022/09/27 01:04:25;;;;;;;7.35;1.40;;;10.70;99.90;;;;;;5050834;28;20040;-44
2022/09/27 01:06:51;;;;;;;4.40;1.10;;;10.60;99.90;;;;;;5050785;28;20427;-41
2022/09/27 01:09:17;;;;;;;6.00;1.00;;;10.60;99.90;;;;;;5051157;28;20025;-41
2022/09/27 01:12:08;;;;;;;2.40;0.90;;;10.30;99.90;;;;;;5051398;28;20017;-43
2022/09/27 01:14:47;;;;;;;5.82;1.33;;;10.50;99.90;;;;;;5051728;28;20104;-48
2022/09/27 01:17:18;;;;;;;2.83;0.88;;;10.50;99.90;;;;;;5050616;28;20041;-54
2022/09/27 01:19:53;;;;;;;4.10;1.10;;;10.60;99.90;;;;;;5051854;28;20471;-41
2022/09/27 01:22:24;;;;;;;3.22;1.13;;;10.50;99.90;;;;;;5051234;28;20025;-49
2022/09/27 01:25:15;;;;;;;4.97;0.98;;;10.40;99.90;;;;;;5051498;28;20013;-45
2022/09/27 01:28:14;;;;;;;4.63;0.88;;;10.40;99.90;;;;;;5050937;28;20094;-48
2022/09/27 01:31:02;;;;;;;3.53;0.75;;;10.40;99.90;;;;;;5051472;28;20036;-52
2022/09/27 01:33:38;;;;;;;4.63;0.88;;;10.40;99.90;;;;;;5051408;28;20020;-50
2022/09/27 01:36:21;;;;;;;3.95;1.10;;;10.30;99.90;;;;;;5050983;28;20047;-49
2022/09/27 01:39:07;;;;;;;2.70;0.73;;;10.20;99.90;;;;;;5049856;28;20380;-47
2022/09/27 01:41:42;;;;;;;4.63;1.00;;;10.20;99.90;;;;;;5050996;28;20032;-50
2022/09/27 01:44:26;;;;;;;2.13;0.70;;;10.20;99.90;;;;;;5051130;28;20021;-48
2022/09/27 01:46:57;;;;;;;2.33;0.85;;;10.20;99.90;;;;;;5047001;28;20033;-49
2022/09/27 01:49:41;;;;;;;2.83;1.00;;;10.20;99.90;;;;;;5047894;28;20041;-54
2022/09/27 01:52:10;;;;;;;4.30;0.95;;;10.10;99.90;;;;;;5051316;28;20082;-47
2022/09/27 01:54:51;;;;;;;4.60;0.68;;;10.10;99.90;;;;;;5051409;28;20418;-47
2022/09/27 01:57:22;;;;;;;9.45;0.90;;;10.10;99.90;;;;;;5051253;28;20037;-51
2022/09/27 02:00:07;;;;;;;4.78;0.77;;;10.00;99.90;;;;;;5050367;28;20464;-48
2022/09/27 02:02:38;;;;;;;4.13;1.20;;;9.90;99.90;;;;;;5050891;28;20072;-44
2022/09/27 02:05:07;;;;;;;4.57;1.10;;;9.80;99.90;;;;;;5050894;28;20040;-46
2022/09/27 02:07:48;;;;;;;3.53;1.13;;;9.80;99.90;;;;;;5049993;28;20029;-43
2022/09/27 02:10:24;;;;;;;7.90;1.02;;;9.80;99.90;;;;;;5049937;28;20029;-54
2022/09/27 02:13:16;;;;;;;3.17;1.00;;;9.80;99.90;;;;;;5050284;28;20079;-42
2022/09/27 02:15:56;;;;;;;3.55;0.80;;;9.90;99.90;;;;;;5050345;28;20036;-47
2022/09/27 02:18:40;;;;;;;3.63;0.90;;;9.80;99.90;;;;;;5049671;28;20028;-42
2022/09/27 02:21:13;;;;;;;5.07;0.93;;;9.70;99.90;;;;;;5050491;28;20058;-45
2022/09/27 02:23:45;;;;;;;2.47;0.70;;;9.60;99.90;;;;;;5050745;28;20078;-48
2022/09/27 02:26:19;;;;;;;2.47;0.70;;;9.60;99.90;;;;;;5050884;28;20032;-40
2022/09/27 02:28:58;;;;;;;2.70;0.70;;;9.50;99.90;;;;;;5050150;28;20103;-41
2022/09/27 02:31:24;;;;;;;;;;;9.50;99.90;;;;;;5074105;28;20057;-47
2022/09/27 02:33:55;;;;;;;3.30;1.00;;;9.50;99.90;;;;;;5049845;28;20009;-49
2022/09/27 02:36:21;;;;;;;2.63;0.80;;;9.40;99.90;;;;;;5050730;28;20124;-41
2022/09/27 02:38:48;;;;;;;5.78;1.00;;;9.40;99.90;;;;;;5050679;28;20040;-47
2022/09/27 02:41:19;;;;;;;3.13;0.85;;;9.40;99.90;;;;;;5050884;28;20025;-41
2022/09/27 02:43:54;;;;;;;2.70;0.80;;;9.40;99.90;;;;;;5050703;28;20033;-50
2022/09/27 02:46:57;;;;;;;2.83;1.00;;;9.30;99.90;;;;;;5050617;28;20558;-44
2022/09/27 02:50:02;;;;;;;5.72;1.20;;;9.30;99.90;;;;;;5049936;28;20075;-43
2022/09/27 02:52:53;;;;;;;5.35;1.08;;;9.20;99.90;;;;;;5041994;28;20132;-42
2022/09/27 02:55:22;;;;;;;2.47;0.65;;;9.20;99.90;;;;;;5050658;28;20112;-46
2022/09/27 02:57:59;;;;;;;7.22;1.08;;;9.10;99.90;;;;;;5050573;28;20117;-47
2022/09/27 03:00:32;;;;;;;3.33;0.90;;;9.00;99.90;;;;;;5050400;28;20400;-40
2022/09/27 03:03:35;;;;;;;2.70;0.85;;;9.10;99.90;;;;;;5050051;28;20021;-48
2022/09/27 03:06:06;;;;;;;2.80;0.73;;;9.00;99.90;;;;;;5050121;28;20499;-45
2022/09/27 03:08:32;;;;;;;4.50;1.02;;;8.90;99.90;;;;;;5050411;28;20021;-44
2022/09/27 03:10:58;;;;;;;5.68;1.10;;;9.00;99.90;;;;;;5049952;28;20031;-40
2022/09/27 03:13:23;;;;;;;3.22;0.70;;;8.90;99.90;;;;;;5049423;28;20437;-43
2022/09/27 03:15:49;;;;;;;2.80;0.90;;;8.90;99.90;;;;;;5049420;28;20402;-48
2022/09/27 03:18:14;;;;;;;4.60;1.42;;;8.80;99.90;;;;;;5049441;28;20438;-47
2022/09/27 03:20:40;;;;;;;5.45;1.00;;;8.80;99.90;;;;;;5049963;28;20029;-44
2022/09/27 03:23:06;;;;;;;4.72;1.08;;;8.90;99.90;;;;;;5049680;28;20388;-43
2022/09/27 03:25:31;;;;;;;3.05;0.93;;;8.90;99.90;;;;;;5049656;28;20082;-44
2022/09/27 03:27:57;;;;;;;2.47;0.80;;;8.90;99.90;;;;;;5050310;28;20078;-52
2022/09/27 03:30:22;;;;;;;3.33;0.80;;;8.90;99.90;;;;;;5050251;28;20051;-41
2022/09/27 03:32:48;;;;;;;5.88;0.90;;;8.90;99.90;;;;;;5049887;28;20036;-44
2022/09/27 03:35:14;;;;;;;2.78;0.70;;;8.90;99.90;;;;;;5049760;28;20028;-41
2022/09/27 03:37:40;;;;;;;2.65;0.63;;;9.00;99.90;;;;;;5048930;28;20492;-46
2022/09/27 03:40:07;;;;;;;4.13;0.80;;;9.00;99.90;;;;;;5051774;28;20025;-45
2022/09/27 03:42:32;;;;;;;2.20;0.95;;;9.00;99.90;;;;;;5053860;28;20116;-44
2022/09/27 03:44:58;;;;;;;3.08;1.02;;;9.00;99.90;;;;;;5053867;28;20152;-44
2022/09/27 03:47:24;;;;;;;2.58;0.70;;;9.00;99.90;;;;;;5053575;28;20394;-45
2022/09/27 03:49:49;;;;;;;4.28;1.25;;;9.10;99.90;;;;;;5053655;28;20481;-45
2022/09/27 03:52:17;;;;;;;5.53;0.90;;;9.10;99.90;;;;;;5053045;28;20027;-43
2022/09/27 03:54:43;;;;;;;4.40;0.98;;;9.20;99.90;;;;;;5053442;28;20482;-41
2022/09/27 03:57:08;;;;;;;6.25;0.90;;;9.20;99.90;;;;;;5053144;28;20033;-40
2022/09/27 03:59:34;;;;;;;3.47;0.80;;;9.20;99.90;;;;;;5053628;28;20388;-41
2022/09/27 04:01:59;;;;;;;2.60;0.70;;;9.20;99.90;;;;;;5053321;28;20396;-40
2022/09/27 04:04:25;;;;;;;3.65;1.00;;;9.30;99.90;;;;;;5053666;28;20075;-40
2022/09/27 04:06:51;;;;;;;3.70;0.95;;;9.30;99.90;;;;;;5053382;28;20029;-48
2022/09/27 04:09:16;;;;;;;5.93;1.27;;;9.30;99.90;;;;;;5053212;28;20025;-40
2022/09/27 04:11:42;;;;;;;3.85;1.13;;;9.30;99.90;;;;;;5053319;28;20020;-44
2022/09/27 04:14:07;;;;;;;1.95;0.70;;;9.30;99.90;;;;;;5053274;28;20036;-41
2022/09/27 04:16:34;;;;;;;2.45;0.63;;;9.30;99.90;;;;;;5052503;28;20040;-54
2022/09/27 04:19:00;;;;;;;5.28;1.00;;;9.30;99.90;;;;;;5052104;28;20021;-40
2022/09/27 04:21:26;;;;;;;4.80;1.90;;;9.30;99.90;;;;;;5051922;28;20112;-43
2022/09/27 04:23:52;;;;;;;4.97;1.00;;;9.30;99.90;;;;;;5052396;28;20118;-43
2022/09/27 04:26:18;;;;;;;4.75;0.88;;;9.30;99.90;;;;;;5052464;28;20108;-50
2022/09/27 04:28:45;;;;;;;4.95;0.73;;;9.30;99.90;;;;;;5052479;28;20028;-49
2022/09/27 04:31:10;;;;;;;3.63;0.68;;;9.40;99.90;;;;;;5052042;28;20377;-44
2022/09/27 04:33:36;;;;;;;4.53;1.05;;;9.30;99.90;;;;;;5052343;28;20025;-45
2022/09/27 04:38:46;;;;;;;11.93;1.40;;;9.40;99.90;;;;;;5052296;28;20052;-43
2022/09/27 04:41:13;;;;;;;3.97;0.70;;;9.30;99.90;;;;;;5052949;28;20044;-40
2022/09/27 04:43:39;;;;;;;4.72;0.80;;;9.30;99.90;;;;;;5052132;28;20021;-42
2022/09/27 04:46:04;;;;;;;4.90;0.93;;;9.30;99.90;;;;;;5052742;28;20071;-42
2022/09/27 04:48:30;;;;;;;3.83;0.90;;;9.30;99.90;;;;;;5052758;28;20071;-45
2022/09/27 04:50:57;;;;;;;4.57;0.93;;;9.40;99.90;;;;;;5051174;28;20041;-40
2022/09/27 04:53:23;;;;;;;4.22;0.70;;;9.40;99.90;;;;;;5052616;28;20017;-43
2022/09/27 04:55:51;;;;;;;3.45;0.75;;;9.40;99.90;;;;;;5052436;28;20326;-45
2022/09/27 04:58:17;;;;;;;4.43;0.90;;;9.40;99.90;;;;;;5052021;28;20075;-51
2022/09/27 05:00:42;;;;;;;2.08;0.82;;;9.40;99.90;;;;;;5052036;28;20049;-45
2022/09/27 05:03:08;;;;;;;4.28;0.80;;;9.40;99.90;;;;;;5052224;28;20039;-53
2022/09/27 05:05:34;;;;;;;5.70;1.20;;;9.50;99.90;;;;;;5052502;28;20024;-48
2022/09/27 05:07:59;;;;;;;4.78;0.98;;;9.40;99.90;;;;;;5052219;28;20368;-47
2022/09/27 05:10:25;;;;;;;2.83;0.77;;;9.50;99.90;;;;;;5052513;28;20028;-56
2022/09/27 05:12:50;;;;;;;4.03;0.75;;;9.50;99.90;;;;;;5052009;28;20025;-49
2022/09/27 05:15:16;;;;;;;4.00;0.80;;;9.50;99.90;;;;;;5052152;28;20560;-49
2022/09/27 05:17:42;;;;;;;4.57;0.88;;;9.40;99.90;;;;;;5052112;28;20025;-42
2022/09/27 05:20:09;;;;;;;6.85;0.88;;;9.50;99.90;;;;;;5052158;28;20036;-52
2022/09/27 05:22:36;;;;;;;5.97;1.30;;;9.50;99.90;;;;;;5051949;28;20404;-53
2022/09/27 05:25:02;;;;;;;5.53;0.90;;;9.50;99.90;;;;;;5052125;28;20029;-51
2022/09/27 05:27:29;;;;;;;8.95;1.02;;;9.50;99.90;;;;;;5051957;28;20040;-49
2022/09/27 05:29:55;;;;;;;4.68;1.02;;;9.50;99.90;;;;;;5051848;28;20051;-52
2022/09/27 05:32:21;;;;;;;4.00;0.90;;;9.50;99.90;;;;;;5051501;28;20427;-55
2022/09/27 05:34:46;;;;;;;2.20;0.70;;;9.50;99.90;;;;;;5051433;28;20045;-43
2022/09/27 05:37:13;;;;;;;2.80;0.70;;;9.50;99.90;;;;;;5051519;28;20507;-40
2022/09/27 05:39:38;;;;;;;8.63;1.08;;;9.50;99.90;;;;;;5051718;28;20120;-44
2022/09/27 05:42:06;;;;;;;5.68;0.82;;;9.50;99.90;;;;;;5051453;28;20553;-45
2022/09/27 05:44:31;;;;;;;3.17;0.68;;;9.50;99.90;;;;;;5051346;28;20571;-40
2022/09/27 05:47:02;;;;;;;3.58;1.00;;;9.60;99.90;;;;;;5051319;28;20025;-49
2022/09/27 05:49:27;;;;;;;3.17;0.65;;;9.40;99.90;;;;;;5051381;28;20098;-40
2022/09/27 05:51:53;;;;;;;6.47;0.80;;;9.50;99.90;;;;;;5051374;28;20485;-48
2022/09/27 05:54:18;;;;;;;5.30;0.82;;;9.50;99.90;;;;;;5050951;28;20025;-49
2022/09/27 05:56:44;;;;;;;5.50;0.82;;;9.50;99.90;;;;;;5051316;28;20040;-44
2022/09/27 05:59:09;;;;;;;4.30;0.98;;;9.50;99.90;;;;;;5050811;28;20096;-49
2022/09/27 06:01:35;;;;;;;6.07;1.00;;;9.50;99.90;;;;;;5051049;28;20044;-46
2022/09/27 06:04:03;;;;;;;4.22;0.70;;;9.60;99.90;;;;;;5050571;28;20025;-43
2022/09/27 06:06:29;;;;;;;7.90;1.52;;;9.50;99.90;;;;;;5050974;28;20625;-44
2022/09/27 06:08:54;;;;;;;7.38;1.17;;;9.60;99.90;;;;;;5051027;28;20081;-44
2022/09/27 06:11:20;;;;;;;3.10;1.30;;;9.70;99.90;;;;;;5050875;28;20086;-47
2022/09/27 06:13:46;;;;;;;5.78;0.95;;;9.70;99.90;;;;;;5050841;28;20074;-43
2022/09/27 06:16:11;;;;;;;5.00;0.90;;;9.70;99.90;;;;;;5050879;28;20098;-48
2022/09/27 06:18:37;;;;;;;3.80;1.08;;;9.80;99.90;;;;;;5050768;28;20079;-40
2022/09/27 06:21:04;;;;;;;4.90;1.10;;;9.80;99.90;;;;;;5051205;28;20021;-44
2022/09/27 06:23:33;;;;;;;3.25;0.75;;;9.80;99.90;;;;;;5050457;28;20041;-47
2022/09/27 06:26:04;;;;;;;3.85;0.95;;;9.80;99.90;;;;;;5050510;28;20061;-46
2022/09/27 06:28:30;;;;;;;4.20;1.27;;;9.90;99.90;;;;;;5050261;28;20031;-44
2022/09/27 06:30:56;;;;;;;3.58;0.90;;;10.00;99.90;;;;;;5050674;28;20087;-40
2022/09/27 06:33:22;;;;;;;4.50;0.82;;;10.00;99.90;;;;;;5050444;28;20025;-43
2022/09/27 06:35:48;;;;;;;3.75;0.70;;;10.00;99.90;;;;;;5050274;28;20044;-46
2022/09/27 06:38:17;;;;;;;7.82;0.90;;;10.00;99.90;;;;;;5050201;28;20036;-42
2022/09/27 06:40:46;;;;;;;3.95;0.85;;;10.00;99.90;;;;;;5049559;28;20079;-46
2022/09/27 06:43:19;;;;;;;3.78;0.70;;;10.10;99.90;;;;;;5049985;28;20020;-44
2022/09/27 06:45:45;;;;;;;5.05;1.00;;;10.20;99.90;;;;;;5049379;28;20491;-49
2022/09/27 06:48:13;;;;;;;4.38;0.60;;;10.20;99.90;;;;;;5049983;28;20025;-42
2022/09/27 06:50:42;;;;;;;3.17;0.75;;;10.30;99.90;;;;;;5050331;28;20044;-48
2022/09/27 06:53:11;;;;;;;3.47;0.95;;;10.30;99.90;;;;;;5050317;28;20041;-47
2022/09/27 06:55:37;;;;;;;3.95;0.80;;;10.40;99.90;;;;;;5050199;28;20021;-54
2022/09/27 07:00:50;;;;;;;2.47;0.70;;;10.60;99.90;;;;;;5050036;28;20059;-48
2022/09/27 07:03:16;;;;;;;4.95;0.73;;;10.60;99.90;;;;;;5050526;28;20017;-47
2022/09/27 07:05:42;;;;;;;6.13;0.93;;;10.70;99.90;;;;;;5050182;28;20069;-45
2022/09/27 07:08:11;;;;;;;2.15;0.90;;;10.70;99.90;;;;;;5050202;28;20523;-43
2022/09/27 07:10:38;;;;;;;3.65;0.63;;;10.70;99.90;;;;;;5050575;28;20081;-45
2022/09/27 07:13:06;;;;;;;4.57;1.00;;;10.80;99.90;;;;;;5050488;28;20037;-42
2022/09/27 07:15:35;;;;;;;3.30;0.90;;;11.00;99.90;;;;;;5052949;28;20110;-49
2022/09/27 07:18:03;;;;;;;4.38;1.20;;;11.00;99.90;;;;;;5054260;28;20111;-41
2022/09/27 07:20:30;;;;;;;6.65;1.20;;;11.10;99.90;;;;;;5054096;28;20104;-54
2022/09/27 07:22:56;;;;;;;3.35;0.65;;;11.10;99.90;;;;;;5047721;28;20406;-46
2022/09/27 07:25:22;;;;;;;2.97;0.77;;;11.20;99.90;;;;;;5051899;28;20195;-42
2022/09/27 07:27:49;;;;;;;3.63;0.73;;;11.20;99.90;;;;;;5053226;28;20025;-42
2022/09/27 07:30:15;;;;;;;4.57;1.20;;;11.20;99.90;;;;;;5050452;28;20037;-42
2022/09/27 07:32:42;;;;;;;4.35;0.70;;;11.30;99.90;;;;;;5053534;28;20067;-42
2022/09/27 07:35:09;;;;;;;4.45;0.95;;;11.50;99.90;;;;;;5053325;28;20094;-43
2022/09/27 07:37:36;;;;;;;5.00;0.93;;;11.60;99.90;;;;;;5053147;28;20118;-43
2022/09/27 07:40:06;;;;;;;3.05;0.75;;;11.70;99.90;;;;;;5053405;28;20024;-43
2022/09/27 07:42:32;;;;;;;4.97;1.10;;;11.80;99.90;;;;;;5053355;28;20053;-45
2022/09/27 07:44:58;;;;;;;5.75;0.90;;;11.90;99.90;;;;;;5053232;28;20060;-51
2022/09/27 07:47:24;;;;;;;2.33;0.80;;;12.20;99.90;;;;;;5053030;28;20064;-45
2022/09/27 07:49:51;;;;;;;6.20;1.17;;;12.40;99.90;;;;;;5052791;28;20095;-41
2022/09/27 07:52:18;;;;;;;6.63;1.25;;;12.70;99.90;;;;;;5053082;28;20021;-42
2022/09/27 07:54:44;;;;;;;4.10;1.00;;;12.90;99.90;;;;;;5052491;28;20397;-46
2022/09/27 07:57:10;;;;;;;4.40;1.00;;;13.00;99.90;;;;;;5052621;28;20032;-49
2022/09/27 07:59:36;;;;;;;4.90;1.00;;;13.10;99.90;;;;;;5052472;28;20021;-46
2022/09/27 08:02:02;;;;;;;6.32;1.33;;;13.20;99.90;;;;;;5052570;28;20064;-47
2022/09/27 08:04:27;;;;;;;8.85;1.25;;;13.30;99.90;;;;;;5052766;28;20025;-43
2022/09/27 08:06:54;;;;;;;6.13;1.30;;;13.50;99.90;;;;;;5052821;28;20025;-48
2022/09/27 08:09:20;;;;;;;6.90;1.30;;;13.20;99.90;;;;;;5053052;28;20032;-49
2022/09/27 08:11:46;;;;;;;6.35;1.25;;;13.30;99.90;;;;;;5052777;28;20025;-49
2022/09/27 08:14:12;;;;;;;3.78;1.13;;;13.20;99.90;;;;;;5052570;28;20029;-43
2022/09/27 08:16:37;;;;;;;7.63;0.88;;;13.30;99.90;;;;;;5047005;28;20033;-41
2022/09/27 08:19:03;;;;;;;4.10;1.00;;;13.30;99.90;;;;;;5049765;28;20501;-40
2022/09/27 08:21:29;;;;;;;7.68;1.60;;;13.30;99.90;;;;;;5051242;28;20023;-42
2022/09/27 08:23:55;;;;;;;12.20;1.48;;;13.40;99.90;;;;;;5048552;28;20112;-46
2022/09/27 08:26:21;;;;;;;9.00;1.40;;;13.50;99.90;;;;;;5048993;28;20029;-47
2022/09/27 08:28:47;;;;;;;8.20;1.80;;;13.60;99.90;;;;;;5043804;28;20146;-43
2022/09/27 08:31:13;;;;;;;6.70;1.52;;;13.70;99.90;;;;;;5047996;28;20041;-47
2022/09/27 08:33:38;;;;;;;8.45;1.40;;;13.80;99.90;;;;;;5052696;28;20258;-46
2022/09/27 08:36:12;;;;;;;5.85;1.10;;;14.30;99.90;;;;;;5054842;28;20083;-45
2022/09/27 08:38:38;;;;;;;9.85;1.67;;;15.10;99.90;;;;;;5057812;28;20025;-43
2022/09/27 08:41:25;;;;;;;4.93;1.20;;;16.10;99.90;;;;;;5050143;28;20562;-45
2022/09/27 08:44:03;;;;;;;6.65;1.20;;;17.50;99.90;;;;;;5049892;28;20089;-46
2022/09/27 08:46:57;;;;;;;4.55;1.00;;;19.30;99.90;;;;;;5051039;28;20025;-43
2022/09/27 08:49:31;;;;;;;4.53;1.30;;;20.90;99.50;;;;;;5049406;28;20041;-45
2022/09/27 08:51:58;;;;;;;4.78;1.65;;;22.50;95.10;;;;;;5049436;28;20025;-44
2022/09/27 08:54:30;;;;;;;6.78;1.15;;;23.40;93.90;;;;;;5051823;28;20476;-44
2022/09/27 08:57:15;;;;;;;7.40;1.63;;;23.40;90.50;;;;;;5051393;28;20072;-47
2022/09/27 08:59:48;;;;;;;7.13;1.23;;;23.30;87.90;;;;;;5046521;28;20020;-45
2022/09/27 09:02:26;;;;;;;6.97;1.30;;;22.90;90.60;;;;;;5049624;28;20072;-46
2022/09/27 09:05:13;;;;;;;6.80;1.70;;;23.10;91.70;;;;;;5049595;28;20017;-55
2022/09/27 09:08:20;;;;;;;7.05;1.10;;;24.20;90.30;;;;;;5051282;28;20408;-48
2022/09/27 09:14:11;;;;;;;8.40;1.70;;;22.70;84.90;;;;;;5051788;28;20040;-45
2022/09/27 09:16:55;;;;;;;6.85;1.60;;;22.00;85.30;;;;;;5055042;28;20491;-51
2022/09/27 09:19:57;;;;;;;7.45;1.50;;;21.70;88.70;;;;;;5051942;28;20067;-47
2022/09/27 09:22:27;;;;;;;5.38;1.40;;;22.70;86.70;;;;;;5049467;28;20484;-45
2022/09/27 09:25:10;;;;;;;5.88;1.20;;;23.70;84.30;;;;;;5046110;28;20021;-46
2022/09/27 09:28:03;;;;;;;4.18;1.52;;;25.20;84.30;;;;;;5047049;28;20060;-45
2022/09/27 09:30:41;;;;;;;6.18;1.30;;;26.20;77.00;;;;;;5044030;28;20450;-52
2022/09/27 09:33:19;;;;;;;8.10;1.30;;;26.30;76.10;;;;;;5046483;28;20040;-45
2022/09/27 09:36:09;;;;;;;5.93;1.38;;;26.30;75.80;;;;;;5042471;28;20021;-44
2022/09/27 09:38:38;;;;;;;6.07;1.40;;;25.70;70.80;;;;;;5048191;28;20037;-45
2022/09/27 09:41:22;;;;;;;9.20;1.80;;;24.00;75.20;;;;;;5051300;28;20455;-48
2022/09/27 09:43:55;;;;;;;6.07;1.30;;;22.40;79.40;;;;;;5050217;28;20021;-51
2022/09/27 09:46:42;;;;;;;10.15;2.22;;;21.10;84.30;;;;;;5050993;28;20017;-45
2022/09/27 09:49:13;;;;;;;9.73;1.52;;;19.60;86.00;;;;;;5051116;28;20067;-43
2022/09/27 09:51:48;;;;;;;9.27;1.35;;;18.30;91.90;;;;;;5051124;28;20028;-44
2022/09/27 09:54:17;;;;;;;6.72;1.48;;;18.10;92.80;;;;;;5050278;28;20484;-44
2022/09/27 09:56:54;;;;;;;6.77;1.50;;;18.00;93.40;;;;;;5049074;28;20068;-43
2022/09/27 09:59:24;;;;;;;8.70;1.65;;;18.10;94.30;;;;;;5049007;28;20262;-45
2022/09/27 10:01:51;;;;;;;5.15;1.42;;;22.10;90.00;;;;;;5048913;28;20029;-47
2022/09/27 10:04:20;;;;;;;5.45;1.77;;;22.20;88.80;;;;;;5048798;28;20090;-44
2022/09/27 10:06:47;;;;;;;4.35;1.40;;;23.00;85.40;;;;;;5048267;28;20029;-45
2022/09/27 10:09:19;;;;;;;6.80;1.17;;;24.30;86.30;;;;;;5049447;28;20033;-45
2022/09/27 10:11:46;;;;;;;8.70;1.50;;;25.20;80.40;;;;;;5047170;28;20032;-42
2022/09/27 10:14:15;;;;;;;4.55;1.25;;;26.20;76.00;;;;;;5047404;28;20575;-42
2022/09/27 10:16:45;;;;;;;7.78;1.50;;;26.30;72.80;;;;;;5046196;28;20040;-48
2022/09/27 10:19:14;;;;;;;8.20;1.92;;;24.70;71.60;;;;;;5049873;28;20071;-43
2022/09/27 10:21:44;;;;;;;6.30;1.40;;;23.20;76.30;;;;;;5049162;28;20033;-48
2022/09/27 10:24:16;;;;;;;7.05;1.58;;;22.00;79.50;;;;;;5049490;28;20035;-47
2022/09/27 10:26:46;;;;;;;9.32;2.13;;;21.30;86.50;;;;;;5049342;28;20025;-45
2022/09/27 10:29:36;;;;;;;5.40;1.80;;;20.70;85.50;;;;;;5049514;28;20496;-42
2022/09/27 10:32:04;;;;;;;9.75;1.88;;;20.10;86.50;;;;;;5047516;28;20037;-52
2022/09/27 10:34:38;;;;;;;11.05;1.98;;;19.40;90.40;;;;;;5049973;28;20019;-51
2022/09/27 10:37:20;;;;;;;9.05;1.48;;;19.50;91.40;;;;;;5047398;28;20047;-44
2022/09/27 10:39:49;;;;;;;7.93;1.88;;;20.20;90.00;;;;;;5050089;28;20025;-44
2022/09/27 10:42:30;;;;;;;5.73;1.57;;;20.20;90.10;;;;;;5045986;28;20036;-48
2022/09/27 10:44:56;;;;;;;10.38;2.05;;;19.70;90.70;;;;;;5046431;28;20315;-44
2022/09/27 10:47:25;;;;;;;10.15;1.80;;;19.30;91.30;;;;;;5046510;28;20416;-48
2022/09/27 10:49:51;;;;;;;9.70;1.77;;;18.50;92.00;;;;;;5056380;28;20044;-43
2022/09/27 10:52:23;;;;;;;7.80;1.85;;;18.30;92.10;;;;;;5052317;28;20032;-48
2022/09/27 10:55:04;;;;;;;10.35;1.98;;;18.20;94.50;;;;;;5050483;28;20082;-42
2022/09/27 10:57:30;;;;;;;9.25;2.17;;;17.80;94.00;;;;;;5052019;28;20076;-45
2022/09/27 10:59:59;;;;;;;8.15;2.30;;;17.40;93.70;;;;;;5052331;28;20014;-43
2022/09/27 11:02:33;;;;;;;8.38;2.00;;;16.40;98.60;;;;;;5051766;28;20024;-47
2022/09/27 11:05:24;;;;;;;11.60;2.08;;;16.50;99.20;;;;;;5050897;28;20518;-44
2022/09/27 11:08:18;;;;;;;9.52;1.73;;;16.10;99.90;;;;;;5053240;28;20047;-57
2022/09/27 11:10:59;;;;;;;7.05;2.10;;;15.80;99.90;;;;;;5053029;28;20052;-51
2022/09/27 11:13:27;;;;;;;9.73;1.80;;;15.60;99.90;;;;;;5051245;28;20025;-44
2022/09/27 11:16:13;;;;;;;10.15;2.00;;;15.30;99.90;;;;;;5049732;28;20040;-47
2022/09/27 11:18:47;;;;;;;9.70;1.67;;;15.10;99.90;;;;;;5052690;28;20079;-48
2022/09/27 11:21:30;;;;;;;6.97;1.67;;;15.00;99.90;;;;;;5049991;28;20033;-43
2022/09/27 11:24:40;;;;;;;9.50;1.90;;;15.10;99.90;;;;;;5050692;28;20036;-42
2022/09/27 11:27:19;;;;;;;9.35;2.42;;;15.70;99.90;;;;;;5029785;28;20025;-45
2022/09/27 11:30:03;;;;;;;9.23;2.20;;;16.50;99.90;;;;;;5052889;28;20488;-43
2022/09/27 11:33:06;;;;;;;10.40;2.20;;;17.40;99.90;;;;;;5051250;28;20351;-41
2022/09/27 11:35:55;;;;;;;7.07;1.60;;;18.80;99.90;;;;;;5052816;28;20021;-54
2022/09/27 11:38:27;;;;;;;7.43;1.80;;;20.00;99.90;;;;;;5052437;28;20054;-41
2022/09/27 11:41:28;;;;;;;9.48;2.00;;;21.20;99.90;;;;;;5049539;28;20060;-42
2022/09/27 11:44:02;;;;;;;11.60;2.67;;;21.60;99.90;;;;;;5051068;28;20037;-47
2022/09/27 11:46:31;;;;;;;6.65;1.38;;;21.60;99.70;;;;;;5047451;28;20105;-42
2022/09/27 11:49:11;;;;;;;8.65;1.42;;;21.40;99.90;;;;;;5051942;28;20017;-47
2022/09/27 11:52:05;;;;;;;6.25;1.30;;;21.60;97.90;;;;;;5052123;28;20403;-41
2022/09/27 11:54:33;;;;;;;5.03;1.33;;;21.40;96.40;;;;;;5052058;28;20017;-53
2022/09/27 11:57:17;;;;;;;3.10;0.88;;;22.90;97.70;;;;;;5052387;28;20029;-48
2022/09/27 12:00:01;;;;;;;6.45;1.40;;;23.70;95.00;;;;;;5045076;28;20021;-49
2022/09/27 12:02:41;;;;;;;4.60;1.10;;;25.00;91.50;;;;;;5048792;28;20404;-43
2022/09/27 12:05:19;;;;;;;3.47;1.00;;;25.30;89.50;;;;;;5051985;28;20104;-44
2022/09/27 12:08:12;;;;;;;3.88;0.90;;;24.40;86.70;;;;;;5053321;28;20104;-45
2022/09/27 12:10:41;;;;;;;3.83;0.93;;;22.90;85.90;;;;;;5052751;28;20033;-51
2022/09/27 12:13:12;;;;;;;3.92;1.10;;;22.10;87.80;;;;;;5052728;28;20017;-51
2022/09/27 12:15:43;;;;;;;4.80;1.20;;;20.80;90.40;;;;;;5052668;28;20050;-51
2022/09/27 12:18:16;;;;;;;4.10;1.00;;;20.20;92.70;;;;;;5051605;28;20032;-51
2022/09/27 12:20:42;;;;;;;5.38;1.20;;;20.60;96.30;;;;;;5051953;28;20032;-47
2022/09/27 12:23:20;;;;;;;7.38;1.60;;;21.10;93.10;;;;;;5046984;28;20443;-47
2022/09/27 12:25:52;;;;;;;6.95;1.30;;;21.60;95.20;;;;;;5050620;28;20021;-43
2022/09/27 12:28:35;;;;;;;7.40;1.35;;;21.40;92.10;;;;;;5043952;28;20040;-43
2022/09/27 12:31:53;;;;;;;4.97;1.05;;;21.40;93.80;;;;;;5042296;28;20013;-51
2022/09/27 12:34:31;;;;;;;6.93;1.08;;;20.80;91.90;;;;;;4998273;28;20042;-48
2022/09/27 12:37:20;;;;;;;5.32;1.30;;;20.30;94.00;;;;;;5051502;28;20477;-44
2022/09/27 12:40:01;;;;;;;5.47;1.45;;;20.30;97.90;;;;;;5055880;28;20055;-50
2022/09/27 12:42:55;;;;;;;5.45;1.48;;;20.50;94.50;;;;;;5057969;28;20020;-49
2022/09/27 12:45:41;;;;;;;7.82;1.77;;;19.90;95.40;;;;;;5053937;28;20483;-52
2022/09/27 12:48:23;;;;;;;6.82;1.33;;;19.00;98.00;;;;;;5057327;28;20025;-43
2022/09/27 12:51:07;;;;;;;5.43;1.40;;;18.60;99.10;;;;;;5050172;28;20132;-45
2022/09/27 12:53:50;;;;;;;5.57;1.63;;;18.70;99.90;;;;;;5049673;28;20135;-43
2022/09/27 12:56:22;;;;;;;6.53;1.45;;;19.20;99.90;;;;;;5051516;28;20047;-47
2022/09/27 12:59:10;;;;;;;5.07;1.35;;;19.60;99.90;;;;;;5039843;28;20049;-48
2022/09/27 13:02:14;;;;;;;5.57;1.60;;;20.00;96.80;;;;;;5043507;28;20107;-45
2022/09/27 13:05:09;;;;;;;7.05;1.45;;;20.30;98.10;;;;;;5049641;28;20025;-40
2022/09/27 13:07:41;;;;;;;7.28;1.55;;;20.80;95.70;;;;;;5029011;28;20060;-51
2022/09/27 13:10:29;;;;;;;6.40;1.75;;;20.70;95.60;;;;;;5051566;28;20053;-49
2022/09/27 13:12:56;;;;;;;8.40;2.80;;;20.80;96.30;;;;;;5049256;28;20029;-49
2022/09/27 13:15:28;;;;;;;15.73;5.50;;;20.80;94.50;;;;;;5052143;28;20029;-50
2022/09/27 13:18:00;;;;;;;16.50;4.82;;;20.40;95.50;;;;;;5045879;28;20088;-43
2022/09/27 13:20:35;;;;;;;10.95;3.20;;;20.40;95.00;;;;;;5050675;28;20032;-42
2022/09/27 13:23:28;;;;;;;8.60;2.88;;;20.50;96.30;;;;;;5043680;28;20024;-43
2022/09/27 13:26:02;;;;;;;8.38;1.85;;;20.60;95.90;;;;;;5049915;28;20070;-44
2022/09/27 13:28:28;;;;;;;7.93;1.77;;;20.60;95.30;;;;;;5050157;28;20036;-44